Time;durP1;ratioP1;P1;durP2;ratioP2;P2;SDS_P1;SDS_P2;PMS_P1;PMS_P2;Temp;Humidity;BMP_temperature;BMP_pressure;BME280_temperature;BME280_humidity;BME280_pressure;Samples;Min_cycle;Max_cycle;Signal;HPM_P1;HPM_P2
2022/12/14 00:01:09;;;;;;;7.03;4.18;;;;;;;1.98;73.24;99994.94;5021708;28;20034;-73
2022/12/14 00:03:35;;;;;;;7.43;4.65;;;;;;;2.02;73.54;99990.44;5018107;28;20041;-73
2022/12/14 00:06:22;;;;;;;7.18;3.85;;;;;;;2.00;72.04;99998.25;5024629;28;20095;-74
2022/12/14 00:08:50;;;;;;;6.63;4.43;;;;;;;2.02;73.38;99991.25;5024288;28;20104;-73
2022/12/14 00:11:16;;;;;;;5.57;3.67;;;;;;;2.02;73.16;99988.69;5023002;28;20026;-73
2022/12/14 00:13:42;;;;;;;7.15;3.90;;;;;;;2.01;72.21;99989.63;5022467;28;20053;-73
2022/12/14 00:16:14;;;;;;;7.88;4.32;;;;;;;2.00;72.61;99982.81;5018712;28;20029;-73
2022/12/14 00:18:40;;;;;;;7.35;4.72;;;;;;;1.99;72.96;99982.00;5023104;28;20030;-73
2022/12/14 00:21:08;;;;;;;8.07;4.35;;;;;;;2.00;72.57;99983.66;5022569;28;20042;-73
2022/12/14 00:23:35;;;;;;;7.25;4.45;;;;;;;2.00;71.88;99978.50;5020348;28;20037;-73
2022/12/14 00:26:18;;;;;;;5.15;3.08;;;;;;;2.01;69.28;99974.19;5018730;28;20128;-73
2022/12/14 00:28:45;;;;;;;4.57;2.53;;;;;;;2.04;71.02;99974.00;5017047;28;20021;-74
2022/12/14 00:31:11;;;;;;;4.45;2.83;;;;;;;2.04;70.50;99973.16;5020582;28;20504;-73
2022/12/14 00:33:37;;;;;;;5.45;3.17;;;;;;;2.05;70.22;99960.22;5021642;28;20073;-73
2022/12/14 00:36:05;;;;;;;4.88;3.03;;;;;;;2.06;71.39;99961.03;5019071;28;20068;-74
2022/12/14 00:38:30;;;;;;;8.50;3.88;;;;;;;2.04;70.94;99956.00;5021371;28;20033;-73
2022/12/14 00:40:56;;;;;;;4.38;3.10;;;;;;;2.05;71.33;99941.41;5021886;28;20039;-73
2022/12/14 00:43:22;;;;;;;5.80;2.92;;;;;;;2.05;71.91;99942.22;5019679;28;20099;-73
2022/12/14 00:45:48;;;;;;;4.78;2.95;;;;;;;2.08;69.62;99946.34;5021216;28;20037;-73
2022/12/14 00:48:13;;;;;;;4.97;2.50;;;;;;;2.11;69.71;99944.41;5022418;28;20087;-73
2022/12/14 00:50:39;;;;;;;5.50;3.47;;;;;;;2.15;68.98;99952.72;5021526;28;20037;-73
2022/12/14 00:53:05;;;;;;;8.60;4.32;;;;;;;2.13;70.95;99952.00;5036197;28;20115;-73
2022/12/14 00:55:37;;;;;;;8.43;5.30;;;;;;;1.98;73.87;99961.56;5020442;28;21164;-73
2022/12/14 00:58:02;;;;;;;9.32;5.78;;;;;;;1.89;75.27;99955.28;5022074;28;20087;-72
2022/12/14 01:00:28;;;;;;;10.88;6.07;;;;;;;1.85;76.50;99959.00;5021394;28;20385;-74
2022/12/14 01:02:53;;;;;;;11.57;6.80;;;;;;;1.74;78.36;99956.31;5030348;28;20431;-73
2022/12/14 01:05:19;;;;;;;12.20;6.75;;;;;;;1.72;80.07;99958.16;5028966;28;20457;-73
2022/12/14 01:07:44;;;;;;;11.02;6.28;;;;;;;1.70;80.43;99944.59;5030185;28;20061;-73
2022/12/14 01:10:10;;;;;;;4.78;2.67;;;;;;;1.83;75.69;99945.44;5029451;28;20119;-73
2022/12/14 01:12:35;;;;;;;4.18;2.45;;;;;;;2.06;70.96;99946.44;5023662;28;20488;-73
2022/12/14 01:15:01;;;;;;;6.10;2.85;;;;;;;2.17;70.33;99948.31;5019085;28;20112;-73
2022/12/14 01:17:27;;;;;;;6.32;3.25;;;;;;;2.16;70.90;99950.03;5019556;28;20045;-73
2022/12/14 01:19:52;;;;;;;6.03;3.78;;;;;;;2.10;71.47;99945.31;5021660;28;20079;-74
2022/12/14 01:22:18;;;;;;;6.60;4.25;;;;;;;2.06;72.46;99935.34;5019296;28;20041;-73
2022/12/14 01:24:43;;;;;;;7.53;5.18;;;;;;;2.02;72.99;99937.31;5019153;28;20033;-73
2022/12/14 01:27:09;;;;;;;8.38;5.07;;;;;;;1.97;73.49;99947.06;5026890;28;20121;-73
2022/12/14 01:29:35;;;;;;;8.57;5.47;;;;;;;1.98;73.30;99949.53;5028458;28;20083;-73
2022/12/14 01:32:01;;;;;;;12.57;6.10;;;;;;;1.96;74.03;99945.41;5025956;28;20083;-73
2022/12/14 01:34:26;;;;;;;10.10;5.00;;;;;;;1.95;72.60;99943.75;5028126;28;20045;-73
2022/12/14 01:36:52;;;;;;;6.80;4.07;;;;;;;2.02;72.58;99936.47;5027790;28;20143;-72
2022/12/14 01:39:17;;;;;;;9.02;5.28;;;;;;;2.04;72.47;99944.91;5019729;28;20520;-73
2022/12/14 01:41:48;;;;;;;9.95;5.30;;;;;;;2.00;72.74;99928.88;5020306;28;20042;-73
2022/12/14 01:44:13;;;;;;;7.65;4.68;;;;;;;2.00;72.54;99934.84;5018079;28;20080;-73
2022/12/14 01:46:46;;;;;;;6.85;4.43;;;;;;;2.01;71.70;99925.38;5019968;28;20124;-73
2022/12/14 01:49:19;;;;;;;9.15;4.68;;;;;;;2.07;71.38;99927.53;5021086;28;20552;-73
2022/12/14 01:51:53;;;;;;;7.85;4.75;;;;;;;2.07;70.71;99927.53;5020279;28;20029;-74
2022/12/14 01:54:19;;;;;;;8.95;4.45;;;;;;;2.06;71.50;99915.59;5024056;28;20045;-73
2022/12/14 01:56:46;;;;;;;6.88;4.45;;;;;;;2.08;71.10;99913.75;5024368;28;20087;-73
2022/12/14 01:59:17;;;;;;;7.22;3.33;;;;;;;2.09;70.08;99917.97;5023231;28;20061;-74
2022/12/14 02:01:44;;;;;;;7.50;4.47;;;;;;;2.09;70.97;99910.25;5022933;28;20025;-73
2022/12/14 02:04:13;;;;;;;9.80;4.85;;;;;;;2.11;70.07;99921.25;5024439;28;20025;-73
2022/12/14 02:06:42;;;;;;;7.63;4.32;;;;;;;2.12;69.35;99916.94;5022731;28;20033;-73
2022/12/14 02:09:13;;;;;;;7.50;4.22;;;;;;;2.15;69.15;99919.31;5024254;28;20042;-72
2022/12/14 02:11:51;;;;;;;5.10;3.42;;;;;;;2.13;68.75;99904.00;5021089;28;20079;-73
2022/12/14 02:14:16;;;;;;;6.82;4.35;;;;;;;2.16;69.94;99906.34;5022547;28;20139;-73
2022/12/14 02:16:42;;;;;;;8.68;4.93;;;;;;;2.17;70.99;99907.19;5022702;28;20152;-74
2022/12/14 02:19:08;;;;;;;7.78;4.88;;;;;;;2.09;71.75;99896.59;5021727;28;20390;-73
2022/12/14 02:22:11;;;;;;;10.85;5.97;;;;;;;2.02;72.81;99895.38;5024578;28;20036;-73
2022/12/14 02:25:05;;;;;;;9.98;5.90;;;;;;;1.99;73.32;99893.81;5022728;28;20124;-73
2022/12/14 02:27:30;;;;;;;9.43;6.28;;;;;;;1.95;73.41;99882.09;5023206;28;20238;-74
2022/12/14 02:30:16;;;;;;;9.93;6.35;;;;;;;1.91;72.71;99886.63;5025100;28;20469;-73
2022/12/14 02:33:09;;;;;;;11.10;6.63;;;;;;;1.86;73.91;99882.75;5024806;28;20044;-73
2022/12/14 02:35:52;;;;;;;10.80;7.22;;;;;;;1.85;74.38;99881.09;5021718;28;20068;-73
2022/12/14 02:38:37;;;;;;;11.50;7.57;;;;;;;1.85;74.23;99868.28;5020114;28;20025;-73
2022/12/14 02:41:37;;;;;;;12.45;7.47;;;;;;;1.82;74.81;99879.56;5022031;28;20480;-73
2022/12/14 02:44:24;;;;;;;12.27;7.88;;;;;;;1.79;75.10;99866.94;5022789;28;20474;-73
2022/12/14 02:47:06;;;;;;;10.27;6.60;;;;;;;1.81;74.79;99862.50;5022103;28;20033;-73
2022/12/14 02:49:58;;;;;;;10.55;6.72;;;;;;;1.90;74.57;99854.16;5021766;28;20025;-73
2022/12/14 02:52:27;;;;;;;12.68;7.28;;;;;;;1.89;74.55;99856.84;5023379;28;20044;-73
2022/12/14 02:55:09;;;;;;;10.40;6.68;;;;;;;1.83;75.40;99857.28;5024235;28;20041;-73
2022/12/14 02:57:57;;;;;;;11.10;7.60;;;;;;;1.80;75.55;99850.59;5028062;28;20124;-73
2022/12/14 03:00:23;;;;;;;13.88;7.70;;;;;;;1.81;76.79;99843.72;5023970;28;20026;-73
2022/12/14 03:02:51;;;;;;;11.32;6.45;;;;;;;1.79;76.27;99846.38;5032816;28;20034;-73
2022/12/14 03:05:17;;;;;;;16.10;7.32;;;;;;;1.81;75.90;99843.72;5029421;28;20464;-73
2022/12/14 03:07:48;;;;;;;11.13;7.40;;;;;;;1.83;76.60;99834.97;5022599;28;20143;-73
2022/12/14 03:10:20;;;;;;;10.63;6.72;;;;;;;1.82;77.11;99842.78;5022734;28;20133;-73
2022/12/14 03:12:53;;;;;;;10.70;7.15;;;;;;;1.81;76.45;99838.56;5020603;28;20051;-72
2022/12/14 03:15:21;;;;;;;10.15;6.63;;;;;;;1.81;76.62;99836.00;5021739;28;20045;-72
2022/12/14 03:17:51;;;;;;;11.73;6.68;;;;;;;1.81;76.33;99830.88;5023463;28;20469;-73
2022/12/14 03:20:23;;;;;;;10.23;6.28;;;;;;;1.78;76.81;99824.19;5022771;28;20416;-73
2022/12/14 03:23:04;;;;;;;11.52;6.85;;;;;;;1.83;76.12;99821.31;5040974;28;20029;-73
2022/12/14 03:25:44;;;;;;;9.95;5.93;;;;;;;1.83;75.19;99806.72;5020784;28;20033;-73
2022/12/14 03:28:17;;;;;;;6.57;4.78;;;;;;;1.92;74.75;99813.78;5022128;28;20038;-73
2022/12/14 03:30:49;;;;;;;9.52;5.60;;;;;;;1.99;74.70;99802.16;5021794;28;20032;-73
2022/12/14 03:33:19;;;;;;;8.82;5.47;;;;;;;1.98;75.06;99791.97;5022015;28;20064;-73
2022/12/14 03:35:57;;;;;;;6.80;4.68;;;;;;;1.99;73.91;99796.19;5023360;28;20030;-73
2022/12/14 03:38:46;;;;;;;5.97;3.47;;;;;;;2.04;72.59;99788.97;5021002;28;20112;-73
2022/12/14 03:41:31;;;;;;;9.20;5.07;;;;;;;2.06;72.54;99791.44;5022447;28;20040;-73
2022/12/14 03:44:18;;;;;;;10.45;4.32;;;;;;;2.05;73.05;99787.22;5023277;28;20037;-73
2022/12/14 03:47:02;;;;;;;9.50;5.45;;;;;;;2.06;73.92;99792.28;5018545;28;20065;-73
2022/12/14 03:49:46;;;;;;;10.35;6.30;;;;;;;2.03;74.79;99789.09;5020374;28;20033;-73
2022/12/14 03:52:23;;;;;;;7.82;5.05;;;;;;;2.02;75.08;99798.53;5021397;28;20041;-72
2022/12/14 03:55:30;;;;;;;11.15;6.57;;;;;;;2.02;74.48;99795.97;5022686;28;20041;-73
2022/12/14 03:58:05;;;;;;;7.70;5.13;;;;;;;2.01;75.23;99796.91;5021393;28;20179;-73
2022/12/14 04:00:39;;;;;;;9.50;5.72;;;;;;;2.03;75.25;99791.66;5021256;28;20037;-72
2022/12/14 04:03:25;;;;;;;8.77;5.13;;;;;;;2.03;75.79;99787.34;5022457;28;20029;-73
2022/12/14 04:06:23;;;;;;;11.82;5.80;;;;;;;2.01;76.24;99784.06;5022214;28;20033;-73
2022/12/14 04:09:07;;;;;;;8.93;5.63;;;;;;;2.00;75.52;99782.41;5018482;28;20025;-72
2022/12/14 04:20:18;;;;;;;5.60;3.35;;;;;;;1.90;73.23;99781.41;5030927;28;20044;-72
2022/12/14 04:22:51;;;;;;;5.72;3.70;;;;;;;1.90;72.88;99773.69;5024722;28;20025;-72
2022/12/14 04:31:08;;;;;;;6.80;3.58;;;;;;;1.91;73.58;99770.19;5021790;28;20053;-72
2022/12/14 04:33:47;;;;;;;6.53;3.47;;;;;;;1.90;73.64;99771.13;5026185;28;20033;-73
2022/12/14 04:36:22;;;;;;;5.93;4.10;;;;;;;1.85;73.68;99768.09;5029922;28;20473;-73
2022/12/14 04:38:54;;;;;;;8.43;4.65;;;;;;;1.80;74.68;99760.69;5018775;28;20041;-72
2022/12/14 04:41:25;;;;;;;10.05;5.30;;;;;;;1.80;74.42;99759.88;5020998;28;20396;-73
2022/12/14 04:43:53;;;;;;;9.40;5.47;;;;;;;1.80;74.95;99759.88;5021100;28;20033;-72
2022/12/14 04:46:25;;;;;;;8.45;4.55;;;;;;;1.79;74.53;99758.22;5016970;28;20033;-72
2022/12/14 04:49:08;;;;;;;7.80;4.80;;;;;;;1.79;74.43;99758.22;5019455;28;20033;-73
2022/12/14 04:52:12;;;;;;;7.28;4.60;;;;;;;1.76;73.62;99758.44;5017645;28;20091;-72
2022/12/14 04:54:37;;;;;;;6.88;4.32;;;;;;;1.80;73.71;99754.72;5018556;28;20042;-73
2022/12/14 04:57:21;;;;;;;10.60;4.57;;;;;;;1.83;74.01;99754.53;5022460;28;20037;-73
2022/12/14 04:59:47;;;;;;;6.05;3.95;;;;;;;1.83;73.12;99749.38;5020481;28;20038;-73
2022/12/14 05:02:32;;;;;;;6.72;3.40;;;;;;;1.84;73.79;99731.31;5016556;28;20025;-73
2022/12/14 05:05:09;;;;;;;8.02;4.82;;;;;;;1.86;72.46;99728.63;5022882;28;20083;-73
2022/12/14 05:08:07;;;;;;;8.13;4.47;;;;;;;1.90;72.49;99727.47;5019305;28;20037;-73
2022/12/14 05:10:42;;;;;;;7.38;4.47;;;;;;;1.88;72.33;99721.63;5021313;28;20037;-72
2022/12/14 05:13:32;;;;;;;7.28;5.05;;;;;;;1.87;71.73;99720.00;5020803;28;20473;-73
2022/12/14 05:15:58;;;;;;;7.88;4.57;;;;;;;1.89;72.39;99723.28;5018546;28;20524;-73
2022/12/14 05:18:24;;;;;;;7.80;4.35;;;;;;;1.95;72.74;99718.50;5019615;28;20056;-73
2022/12/14 05:20:50;;;;;;;8.93;4.75;;;;;;;1.99;73.82;99713.97;5021321;28;20033;-73
2022/12/14 05:23:16;;;;;;;8.00;3.78;;;;;;;2.05;73.04;99712.72;5019238;28;20048;-73
2022/12/14 05:25:42;;;;;;;6.85;4.57;;;;;;;2.05;73.54;99723.81;5021193;28;20465;-73
2022/12/14 05:28:09;;;;;;;7.45;4.15;;;;;;;2.07;72.67;99727.09;5019781;28;20045;-73
2022/12/14 05:30:36;;;;;;;7.93;4.15;;;;;;;2.10;73.03;99726.88;5021217;28;20053;-73
2022/12/14 05:33:01;;;;;;;5.90;3.67;;;;;;;2.14;72.46;99732.63;5021671;28;20143;-73
2022/12/14 05:35:27;;;;;;;7.60;4.72;;;;;;;2.16;72.18;99733.34;5018416;28;20042;-72
2022/12/14 05:37:52;;;;;;;7.65;4.05;;;;;;;2.20;72.11;99733.03;5019064;28;20041;-72
2022/12/14 05:40:18;;;;;;;8.32;5.22;;;;;;;2.20;72.47;99734.78;5017902;28;20102;-72
2022/12/14 05:42:43;;;;;;;8.57;5.25;;;;;;;2.14;72.68;99727.50;5022456;28;20037;-73
2022/12/14 05:45:12;;;;;;;9.32;4.18;;;;;;;2.06;72.84;99727.22;5019913;28;20026;-73
2022/12/14 05:47:38;;;;;;;7.82;3.90;;;;;;;1.96;74.16;99724.47;5017730;28;20120;-73
2022/12/14 05:50:04;;;;;;;8.05;4.28;;;;;;;1.93;73.88;99722.94;5020516;28;20021;-73
2022/12/14 05:52:30;;;;;;;7.28;4.22;;;;;;;1.95;74.10;99725.38;5031964;28;20473;-72
2022/12/14 05:54:55;;;;;;;6.47;4.07;;;;;;;1.97;73.52;99724.34;5024240;28;20099;-72
2022/12/14 05:57:21;;;;;;;6.63;4.07;;;;;;;2.09;72.69;99719.28;5024296;28;20029;-73
2022/12/14 05:59:47;;;;;;;8.20;4.03;;;;;;;2.13;73.98;99706.09;5019316;28;20091;-73
2022/12/14 06:02:12;;;;;;;9.27;5.03;;;;;;;2.11;74.05;99718.25;5019385;28;20026;-73
2022/12/14 06:04:38;;;;;;;8.30;4.90;;;;;;;2.16;74.18;99711.03;5024762;28;20120;-73
2022/12/14 06:07:03;;;;;;;8.95;5.35;;;;;;;2.11;75.26;99707.97;5029628;28;20485;-74
2022/12/14 06:09:29;;;;;;;12.32;6.00;;;;;;;2.07;75.92;99711.69;5019281;28;20029;-72
2022/12/14 06:11:54;;;;;;;8.70;5.90;;;;;;;2.03;76.93;99720.53;5020363;28;20029;-73
2022/12/14 06:14:20;;;;;;;9.15;5.18;;;;;;;2.05;77.12;99717.84;5017767;28;20642;-73
2022/12/14 06:16:46;;;;;;;10.35;6.35;;;;;;;2.04;78.03;99718.78;5020681;28;20021;-72
2022/12/14 06:19:13;;;;;;;9.70;6.32;;;;;;;2.01;78.62;99717.25;5019899;28;20496;-72
2022/12/14 06:21:40;;;;;;;12.63;7.18;;;;;;;1.97;79.41;99715.81;5020550;28;20046;-72
2022/12/14 06:24:07;;;;;;;8.52;4.95;;;;;;;2.04;76.65;99711.91;5025705;28;20037;-73
2022/12/14 06:26:39;;;;;;;7.68;4.45;;;;;;;2.15;75.60;99713.72;5028376;28;20037;-73
2022/12/14 06:29:06;;;;;;;6.30;3.80;;;;;;;2.20;75.30;99717.59;5025678;28;20112;-73
2022/12/14 06:31:32;;;;;;;6.07;3.90;;;;;;;2.23;74.99;99714.00;5025668;28;20149;-73
2022/12/14 06:33:59;;;;;;;6.55;3.90;;;;;;;2.27;72.39;99720.56;5028384;28;20067;-74
2022/12/14 06:36:30;;;;;;;6.90;4.13;;;;;;;2.27;73.39;99718.81;5028824;28;20034;-73
2022/12/14 06:38:58;;;;;;;7.03;4.25;;;;;;;2.31;73.99;99725.38;5025433;28;20068;-73
2022/12/14 06:41:24;;;;;;;4.43;3.45;;;;;;;2.35;74.24;99732.88;5018872;28;20033;-73
2022/12/14 06:43:50;;;;;;;5.28;3.25;;;;;;;2.38;73.53;99730.03;5022539;28;20130;-73
2022/12/14 06:46:19;;;;;;;6.50;4.22;;;;;;;2.44;73.75;99724.47;5020454;28;20041;-73
2022/12/14 06:48:53;;;;;;;7.55;4.20;;;;;;;2.42;72.48;99723.75;5023163;28;20071;-73
2022/12/14 06:51:20;;;;;;;8.65;4.40;;;;;;;2.42;74.72;99722.00;5022681;28;20614;-73
2022/12/14 06:53:48;;;;;;;7.90;4.82;;;;;;;2.38;75.31;99719.75;5022793;28;20038;-73
2022/12/14 06:56:16;;;;;;;7.45;4.55;;;;;;;2.39;75.31;99716.25;5022121;28;20373;-73
2022/12/14 06:58:42;;;;;;;7.82;4.28;;;;;;;2.38;75.63;99714.63;5022907;28;20037;-74
2022/12/14 07:01:12;;;;;;;8.90;5.13;;;;;;;2.40;74.31;99712.75;5022243;28;20045;-74
2022/12/14 07:03:38;;;;;;;9.68;5.38;;;;;;;2.41;75.03;99719.53;5021340;28;20029;-73
2022/12/14 07:06:05;;;;;;;6.10;4.28;;;;;;;2.41;75.28;99715.22;5023410;28;20052;-73
2022/12/14 07:08:32;;;;;;;7.20;3.65;;;;;;;2.44;74.35;99709.84;5020929;28;20412;-73
2022/12/14 07:11:01;;;;;;;7.30;4.57;;;;;;;2.48;74.44;99718.16;5018738;28;20041;-74
2022/12/14 07:13:26;;;;;;;9.90;4.70;;;;;;;2.48;74.51;99716.41;5017088;28;20049;-73
2022/12/14 07:15:54;;;;;;;6.20;3.45;;;;;;;2.52;73.15;99717.00;5021623;28;20492;-74
2022/12/14 07:18:19;;;;;;;6.65;4.63;;;;;;;2.52;73.04;99729.88;5021448;28;20029;-74
2022/12/14 07:21:15;;;;;;;10.50;4.38;;;;;;;2.54;71.73;99736.56;5022400;28;20029;-74
2022/12/14 07:23:43;;;;;;;9.00;5.38;;;;;;;2.57;73.40;99736.31;5012963;28;20041;-73
2022/12/14 07:26:17;;;;;;;8.10;4.60;;;;;;;2.59;72.79;99733.66;5022665;28;20103;-73
2022/12/14 07:28:44;;;;;;;11.93;5.25;;;;;;;2.62;73.19;99744.53;5022580;28;20060;-74
2022/12/14 07:31:13;;;;;;;7.35;4.53;;;;;;;2.62;74.19;99744.53;5021564;28;20483;-73
2022/12/14 07:33:38;;;;;;;17.20;9.00;;;;;;;2.62;75.73;99746.28;5020097;28;20038;-73
2022/12/14 07:36:10;;;;;;;16.15;8.13;;;;;;;2.59;76.67;99752.47;5016097;28;20033;-73
2022/12/14 07:38:37;;;;;;;13.07;7.05;;;;;;;2.60;76.68;99745.56;5015694;28;20041;-73
2022/12/14 07:41:09;;;;;;;9.93;6.10;;;;;;;2.63;76.69;99750.50;5021679;28;20040;-74
2022/12/14 07:43:35;;;;;;;9.73;6.25;;;;;;;2.65;76.76;99752.03;5020190;28;20071;-74
2022/12/14 07:46:07;;;;;;;9.10;5.25;;;;;;;2.67;75.90;99751.91;5019013;28;20034;-74
2022/12/14 07:48:34;;;;;;;17.63;5.80;;;;;;;2.60;74.54;99748.97;5020811;28;20025;-74
2022/12/14 07:51:07;;;;;;;11.52;6.10;;;;;;;2.59;74.87;99747.31;5027485;28;20048;-73
2022/12/14 07:53:33;;;;;;;14.90;7.72;;;;;;;2.56;74.94;99751.88;5031298;28;20555;-73
2022/12/14 07:56:03;;;;;;;10.93;6.65;;;;;;;2.57;73.80;99750.94;5030778;28;20159;-74
2022/12/14 07:58:30;;;;;;;12.23;5.82;;;;;;;2.63;74.01;99758.22;5028466;28;20037;-74
2022/12/14 08:00:56;;;;;;;9.40;5.18;;;;;;;2.69;73.88;99760.34;5027830;28;20048;-73
2022/12/14 08:03:21;;;;;;;11.63;6.28;;;;;;;2.76;73.58;99769.25;5025713;28;20037;-74
2022/12/14 08:05:47;;;;;;;8.18;5.65;;;;;;;2.81;73.82;99774.06;5044067;28;20126;-73
2022/12/14 08:08:12;;;;;;;12.55;5.35;;;;;;;2.86;73.84;99772.78;5032689;28;20029;-74
2022/12/14 08:10:37;;;;;;;9.40;5.28;;;;;;;2.88;73.40;99788.91;5029670;28;20026;-73
2022/12/14 08:13:03;;;;;;;13.15;6.65;;;;;;;2.89;74.45;99793.13;5029331;28;20049;-73
2022/12/14 08:15:28;;;;;;;9.68;6.25;;;;;;;2.92;75.65;99792.09;5028765;28;20139;-74
2022/12/14 08:17:54;;;;;;;10.93;6.35;;;;;;;2.88;75.84;99791.50;5029775;28;20032;-74
2022/12/14 08:20:19;;;;;;;10.23;6.95;;;;;;;2.90;76.76;99799.09;5028812;28;20041;-73
2022/12/14 08:22:45;;;;;;;9.82;6.68;;;;;;;2.86;77.19;99798.50;5030572;28;20029;-74
2022/12/14 08:25:10;;;;;;;11.45;6.65;;;;;;;2.82;77.03;99791.97;5025359;28;20131;-74
2022/12/14 08:27:35;;;;;;;12.57;6.88;;;;;;;2.85;77.46;99802.00;5019847;28;20041;-74
2022/12/14 08:30:01;;;;;;;9.57;6.43;;;;;;;2.88;77.69;99803.53;5020949;28;20029;-74
2022/12/14 08:32:27;;;;;;;9.82;6.20;;;;;;;2.88;75.67;99809.50;5020236;28;20056;-74
2022/12/14 08:34:52;;;;;;;10.18;5.82;;;;;;;2.89;74.45;99800.84;5021109;28;20373;-74
2022/12/14 08:37:18;;;;;;;9.05;5.93;;;;;;;2.92;75.50;99803.22;5019995;28;20033;-75
2022/12/14 08:39:43;;;;;;;12.15;6.97;;;;;;;2.94;75.18;99806.50;5021644;28;20033;-75
2022/12/14 08:42:08;;;;;;;12.30;6.43;;;;;;;2.91;74.06;99806.72;5021452;28;20036;-75
2022/12/14 08:44:34;;;;;;;9.23;5.25;;;;;;;2.91;72.99;99811.84;5018530;28;20114;-74
2022/12/14 08:46:59;;;;;;;10.05;6.95;;;;;;;2.95;73.45;99810.69;5017372;28;20516;-74
2022/12/14 08:49:25;;;;;;;10.18;5.85;;;;;;;3.02;74.55;99817.97;5019667;28;20458;-74
2022/12/14 08:51:50;;;;;;;10.43;5.55;;;;;;;3.08;74.47;99817.53;5029925;28;20484;-74
2022/12/14 08:54:17;;;;;;;13.18;5.63;;;;;;;3.12;72.94;99818.94;5027538;28;20575;-75
2022/12/14 08:56:43;;;;;;;9.40;4.90;;;;;;;3.16;72.84;99830.66;5045364;28;20389;-74
2022/12/14 08:59:08;;;;;;;12.43;6.05;;;;;;;3.19;72.66;99827.88;5027082;28;20037;-74
2022/12/14 09:01:34;;;;;;;11.23;5.88;;;;;;;3.15;71.26;99831.59;5027376;28;20566;-74
2022/12/14 09:04:07;;;;;;;7.60;4.78;;;;;;;3.10;70.60;99837.09;5030220;28;20025;-73
2022/12/14 09:06:35;;;;;;;9.73;5.30;;;;;;;3.09;71.02;99824.31;5026110;28;20033;-74
2022/12/14 09:09:01;;;;;;;9.80;6.22;;;;;;;3.10;71.56;99815.66;5029970;28;20385;-73
2022/12/14 09:11:28;;;;;;;9.90;4.60;;;;;;;3.13;72.47;99821.41;5025116;28;20037;-74
2022/12/14 09:13:54;;;;;;;11.82;5.68;;;;;;;3.11;74.09;99812.97;5028017;28;20046;-74
2022/12/14 09:16:22;;;;;;;9.48;5.82;;;;;;;3.12;74.39;99804.31;5025235;28;20125;-73
2022/12/14 09:18:48;;;;;;;9.00;5.78;;;;;;;3.13;73.89;99797.44;5028383;28;20144;-73
2022/12/14 09:21:14;;;;;;;15.18;5.78;;;;;;;3.22;73.46;99795.00;5029022;28;20124;-73
2022/12/14 09:23:40;;;;;;;11.80;5.72;;;;;;;3.31;73.97;99798.63;5021007;28;20029;-73
2022/12/14 09:26:13;;;;;;;11.80;6.28;;;;;;;3.43;74.06;99794.31;5029931;28;20049;-73
2022/12/14 09:28:41;;;;;;;14.98;6.80;;;;;;;3.42;73.41;99798.63;5028678;28;20030;-73
2022/12/14 09:31:11;;;;;;;14.25;6.20;;;;;;;3.42;72.91;99787.50;5025060;28;20033;-74
2022/12/14 09:33:37;;;;;;;8.88;5.28;;;;;;;3.47;72.57;99785.41;5028386;28;20491;-73
2022/12/14 09:36:08;;;;;;;9.05;5.22;;;;;;;3.55;72.21;99780.50;5029490;28;20037;-73
2022/12/14 09:38:35;;;;;;;10.63;6.57;;;;;;;3.61;72.22;99775.72;5028213;28;20061;-73
2022/12/14 09:41:22;;;;;;;13.93;6.05;;;;;;;3.65;71.25;99771.97;5029597;28;20107;-73
2022/12/14 09:43:55;;;;;;;10.45;6.10;;;;;;;3.80;72.00;99771.72;5023593;28;20055;-73
2022/12/14 09:46:39;;;;;;;10.75;6.03;;;;;;;3.92;73.01;99765.63;5026883;28;20408;-74
2022/12/14 09:49:31;;;;;;;14.27;6.50;;;;;;;4.05;73.37;99768.88;5021645;28;20022;-73
2022/12/14 09:52:03;;;;;;;10.82;6.15;;;;;;;4.06;73.53;99761.97;5011079;28;20072;-74
2022/12/14 09:54:33;;;;;;;11.90;5.95;;;;;;;4.00;73.32;99765.84;5028778;28;20125;-74
2022/12/14 09:57:37;;;;;;;9.73;6.10;;;;;;;4.03;73.00;99770.75;5025843;28;20029;-73
2022/12/14 10:00:10;;;;;;;9.73;5.35;;;;;;;4.15;74.03;99772.38;5026417;28;20091;-73
2022/12/14 10:02:54;;;;;;;10.07;5.88;;;;;;;4.22;74.64;99775.31;5028855;28;20029;-74
2022/12/14 10:05:30;;;;;;;10.48;5.68;;;;;;;4.24;74.73;99768.28;5025066;28;20120;-73
2022/12/14 10:08:29;;;;;;;9.55;5.45;;;;;;;4.15;70.42;99735.47;5029380;28;20037;-74
2022/12/14 10:11:20;;;;;;;9.88;4.90;;;;;;;4.02;70.68;99727.88;5018190;28;20457;-74
2022/12/14 10:14:03;;;;;;;10.52;5.70;;;;;;;3.98;68.03;99736.78;5029818;28;20073;-74
2022/12/14 10:16:47;;;;;;;11.50;5.47;;;;;;;3.93;68.65;99732.00;5029668;28;20087;-74
2022/12/14 10:19:29;;;;;;;10.85;5.43;;;;;;;3.92;68.24;99732.09;5036339;28;20037;-74
2022/12/14 10:22:16;;;;;;;10.88;4.68;;;;;;;3.95;68.18;99737.03;5031768;28;20029;-73
2022/12/14 10:24:44;;;;;;;8.32;4.65;;;;;;;3.97;69.13;99728.22;5031400;28;20029;-74
2022/12/14 10:27:21;;;;;;;7.53;4.50;;;;;;;4.03;68.68;99723.53;5031941;28;20146;-73
2022/12/14 10:29:54;;;;;;;12.32;5.18;;;;;;;4.10;69.72;99725.53;5030471;28;20484;-73
2022/12/14 10:32:29;;;;;;;9.23;4.90;;;;;;;4.14;68.90;99721.75;5028540;28;20063;-74
2022/12/14 10:34:55;;;;;;;10.45;5.45;;;;;;;4.12;68.98;99721.06;5027083;28;20364;-73
2022/12/14 10:37:22;;;;;;;10.02;5.63;;;;;;;4.18;69.00;99723.16;5025296;28;20034;-71
2022/12/14 10:40:27;;;;;;;12.65;7.20;;;;;;;4.20;67.73;99716.13;5022822;28;20127;-72
2022/12/14 10:43:05;;;;;;;10.60;5.25;;;;;;;4.20;67.30;99698.06;5030058;28;20029;-74
2022/12/14 10:46:12;;;;;;;12.95;5.30;;;;;;;4.20;66.50;99692.91;5020721;28;20250;-73
2022/12/14 10:48:58;;;;;;;;;;;;;;;4.25;66.31;99688.19;5017788;28;20045;-74
2022/12/14 10:51:26;;;;;;;8.13;4.80;;;;;;;4.29;69.41;99670.69;5011339;28;19996;-74
2022/12/14 10:54:06;;;;;;;7.70;5.00;;;;;;;4.27;68.44;99665.66;5022680;28;20043;-71
2022/12/14 10:56:33;;;;;;;7.13;4.57;;;;;;;4.25;67.39;99659.81;5021471;28;20484;-71
2022/12/14 10:59:28;;;;;;;8.25;4.70;;;;;;;4.23;67.47;99654.00;5021197;28;20037;-72
2022/12/14 11:01:59;;;;;;;9.38;5.28;;;;;;;4.26;67.73;99651.13;5018716;28;20041;-70
2022/12/14 11:04:32;;;;;;;11.23;4.70;;;;;;;4.29;67.33;99650.88;5023963;28;20048;-72
2022/12/14 11:07:00;;;;;;;7.72;4.20;;;;;;;4.33;68.30;99641.97;5023055;28;20118;-71
2022/12/14 11:09:27;;;;;;;9.43;4.30;;;;;;;4.33;67.95;99644.53;5020045;28;20034;-71
2022/12/14 11:12:06;;;;;;;28.80;7.40;;;;;;;4.37;67.84;99637.38;5019591;28;20033;-71
2022/12/14 11:14:34;;;;;;;7.75;4.78;;;;;;;4.43;68.03;99643.81;5015208;28;20029;-71
2022/12/14 11:16:59;;;;;;;7.60;4.60;;;;;;;4.45;68.82;99631.59;5020412;28;20037;-73
2022/12/14 11:19:26;;;;;;;8.48;4.75;;;;;;;4.47;68.37;99624.56;5018246;28;20032;-72
2022/12/14 11:22:10;;;;;;;8.27;5.13;;;;;;;4.45;67.31;99626.44;5021484;28;20060;-71
2022/12/14 11:24:46;;;;;;;7.78;4.88;;;;;;;4.45;67.80;99614.34;5022294;28;20407;-73
2022/12/14 11:27:15;;;;;;;9.27;5.00;;;;;;;4.50;68.43;99619.16;5020407;28;20025;-72
2022/12/14 11:29:46;;;;;;;9.13;5.45;;;;;;;4.53;68.51;99618.88;5019867;28;20033;-71
2022/12/14 11:32:19;;;;;;;7.90;5.28;;;;;;;4.50;69.23;99601.09;5026198;28;20433;-71
2022/12/14 11:34:54;;;;;;;6.93;4.75;;;;;;;4.51;67.93;99600.16;5031106;28;20124;-71
2022/12/14 11:37:23;;;;;;;9.88;5.65;;;;;;;4.53;68.52;99588.75;5028503;28;20124;-72
2022/12/14 11:39:51;;;;;;;12.95;6.85;;;;;;;4.59;69.07;99582.28;5021481;28;20025;-72
2022/12/14 11:42:19;;;;;;;12.30;6.72;;;;;;;4.63;69.69;99583.66;5021094;28;20025;-72
2022/12/14 11:44:46;;;;;;;12.25;6.50;;;;;;;4.64;68.95;99590.44;5022011;28;20477;-73
2022/12/14 11:47:13;;;;;;;9.80;5.65;;;;;;;4.67;69.35;99582.44;5019192;28;20041;-72
2022/12/14 11:49:38;;;;;;;12.10;6.30;;;;;;;4.70;69.85;99576.22;5019422;28;20044;-72
2022/12/14 11:52:03;;;;;;;19.15;10.32;;;;;;;4.73;70.84;99581.91;5020502;28;20034;-72
2022/12/14 11:54:40;;;;;;;17.88;9.85;;;;;;;4.73;71.29;99579.34;5022075;28;20045;-72
2022/12/14 11:57:09;;;;;;;18.13;10.40;;;;;;;4.74;71.78;99569.81;5023892;28;20033;-72
2022/12/14 11:59:39;;;;;;;17.00;8.52;;;;;;;4.73;71.85;99581.09;5023556;28;20858;-72
2022/12/14 12:02:22;;;;;;;17.27;9.80;;;;;;;4.74;71.34;99575.81;5027763;28;20095;-72
2022/12/14 12:04:58;;;;;;;12.38;7.47;;;;;;;4.88;72.40;99580.63;5028601;28;20036;-72
2022/12/14 12:07:36;;;;;;;11.30;6.63;;;;;;;4.96;72.17;99572.25;5018417;28;20121;-72
2022/12/14 12:10:16;;;;;;;13.95;7.15;;;;;;;5.00;73.02;99579.59;5028594;28;20033;-72
2022/12/14 12:12:58;;;;;;;15.50;8.38;;;;;;;4.95;72.72;99571.44;5023785;28;20049;-72
2022/12/14 12:15:42;;;;;;;14.20;7.07;;;;;;;4.96;72.96;99569.66;5025111;28;20038;-73